Time;durP1;ratioP1;P1;durP2;ratioP2;P2;SDS_P1;SDS_P2;PMS_P1;PMS_P2;Temp;Humidity;BMP_temperature;BMP_pressure;BME280_temperature;BME280_humidity;BME280_pressure;Samples;Min_cycle;Max_cycle;Signal;HPM_P1;HPM_P2
2022/11/02 00:01:46;;;;;;;;;;;20.00;73.50;;;;;;4492582;31;20041;-68
2022/11/02 00:04:12;;;;;;;;;;;20.00;73.50;;;;;;4492809;31;19974;-67
2022/11/02 00:06:40;;;;;;;;;;;20.00;73.50;;;;;;4493063;31;20017;-68
2022/11/02 00:09:05;;;;;;;;;;;20.00;73.50;;;;;;4492872;31;20351;-68
2022/11/02 00:11:31;;;;;;;;;;;20.00;73.50;;;;;;4492836;31;19965;-68
2022/11/02 00:13:57;;;;;;;;;;;19.90;73.50;;;;;;4492417;31;19962;-68
2022/11/02 00:16:24;;;;;;;;;;;19.90;73.50;;;;;;4492820;31;19966;-68
2022/11/02 00:18:52;;;;;;;;;;;19.90;73.50;;;;;;4492960;31;19977;-68
2022/11/02 00:21:18;;;;;;;;;;;19.90;73.50;;;;;;4492682;31;20004;-67
2022/11/02 00:23:44;;;;;;;;;;;19.90;73.50;;;;;;4492402;31;20394;-68
2022/11/02 00:26:10;;;;;;;;;;;19.90;73.50;;;;;;4492465;31;20086;-67
2022/11/02 00:28:36;;;;;;;;;;;19.90;73.50;;;;;;4478204;32;20107;-68
2022/11/02 00:31:01;;;;;;;;;;;19.80;73.40;;;;;;4492385;31;20104;-68
2022/11/02 00:33:27;;;;;;;;;;;19.80;73.40;;;;;;4492239;32;20492;-68
2022/11/02 00:35:53;;;;;;;;;;;19.80;73.40;;;;;;4492368;32;20047;-67
2022/11/02 00:38:19;;;;;;;;;;;19.80;73.40;;;;;;4492493;32;19996;-67
2022/11/02 00:40:45;;;;;;;;;;;19.80;73.40;;;;;;4492513;32;20299;-67
2022/11/02 00:43:11;;;;;;;;;;;19.80;73.40;;;;;;4492484;32;20367;-67
2022/11/02 00:45:36;;;;;;;;;;;19.80;73.40;;;;;;4492674;32;19969;-67
2022/11/02 00:48:03;;;;;;;;;;;19.80;73.30;;;;;;4492432;32;19981;-67
2022/11/02 00:50:28;;;;;;;;;;;19.80;73.30;;;;;;4492547;32;20063;-67
2022/11/02 00:52:54;;;;;;;;;;;19.80;73.30;;;;;;4492483;32;20112;-67
2022/11/02 00:55:20;;;;;;;;;;;19.80;73.30;;;;;;4492446;32;19981;-67
2022/11/02 00:57:46;;;;;;;;;;;19.80;73.30;;;;;;4492450;32;20090;-67
2022/11/02 01:00:13;;;;;;;;;;;19.70;73.20;;;;;;4492663;32;19981;-67
2022/11/02 01:02:39;;;;;;;;;;;19.80;73.20;;;;;;4492301;32;19993;-67
2022/11/02 01:05:06;;;;;;;;;;;19.70;73.20;;;;;;4492328;31;19962;-67
2022/11/02 01:07:32;;;;;;;;;;;19.70;73.10;;;;;;4495403;31;19981;-67
2022/11/02 01:09:58;;;;;;;;;;;19.70;73.10;;;;;;4495117;31;20443;-67
2022/11/02 01:12:24;;;;;;;;;;;19.70;73.10;;;;;;4495363;31;20013;-67
2022/11/02 01:14:49;;;;;;;;;;;19.70;73.10;;;;;;4495260;31;19977;-67
2022/11/02 01:17:16;;;;;;;;;;;19.70;73.10;;;;;;4495378;31;19969;-67
2022/11/02 01:19:42;;;;;;;;;;;19.70;73.10;;;;;;4495544;31;20300;-67
2022/11/02 01:22:07;;;;;;;;;;;19.70;73.20;;;;;;4495586;31;19980;-67
2022/11/02 01:24:33;;;;;;;;;;;19.70;73.10;;;;;;4495200;31;19966;-67
2022/11/02 01:26:59;;;;;;;;;;;19.70;73.20;;;;;;4494875;31;19981;-67
2022/11/02 01:29:24;;;;;;;;;;;19.70;73.10;;;;;;4495201;31;19981;-67
2022/11/02 01:31:52;;;;;;;;;;;19.70;73.10;;;;;;4480733;31;20105;-67
2022/11/02 01:34:18;;;;;;;;;;;19.60;73.10;;;;;;4494840;31;20461;-68
2022/11/02 01:36:45;;;;;;;;;;;19.70;73.20;;;;;;4495026;31;20039;-67
2022/11/02 01:39:11;;;;;;;;;;;19.60;73.10;;;;;;4495307;31;19983;-67
2022/11/02 01:41:37;;;;;;;;;;;19.60;73.10;;;;;;4495181;31;19981;-67
2022/11/02 01:44:03;;;;;;;;;;;19.60;73.10;;;;;;4495136;31;20310;-66
2022/11/02 01:46:43;;;;;;;;;;;19.60;73.00;;;;;;4494849;31;20326;-67
2022/11/02 01:49:12;;;;;;;;;;;19.60;73.00;;;;;;4494903;31;20110;-68
2022/11/02 01:51:44;;;;;;;;;;;19.60;73.00;;;;;;4494885;31;20402;-68
2022/11/02 01:54:13;;;;;;;;;;;19.60;73.00;;;;;;4494867;31;20120;-68
2022/11/02 01:56:39;;;;;;;;;;;19.60;73.10;;;;;;4495012;31;20009;-67
2022/11/02 01:59:08;;;;;;;;;;;19.60;73.10;;;;;;4494745;31;20318;-67
2022/11/02 02:01:33;;;;;;;;;;;19.60;73.10;;;;;;4494822;31;19978;-67
2022/11/02 02:04:01;;;;;;;;;;;19.60;73.00;;;;;;4494385;31;20288;-67
2022/11/02 02:06:26;;;;;;;;;;;19.60;73.10;;;;;;4494432;31;19981;-67
2022/11/02 02:08:54;;;;;;;;;;;19.60;73.00;;;;;;4494567;31;19985;-67
2022/11/02 02:11:26;;;;;;;;;;;19.60;73.00;;;;;;4494597;31;19985;-67
2022/11/02 02:13:56;;;;;;;;;;;19.60;73.00;;;;;;4494808;31;19985;-67
2022/11/02 02:16:31;;;;;;;;;;;19.50;73.00;;;;;;4494283;31;19978;-67
2022/11/02 02:18:58;;;;;;;;;;;19.50;73.00;;;;;;4493805;31;20036;-67
2022/11/02 02:21:42;;;;;;;;;;;19.50;72.90;;;;;;4494669;31;20043;-67
2022/11/02 02:24:20;;;;;;;;;;;19.60;73.00;;;;;;4494361;31;20085;-68
2022/11/02 02:26:58;;;;;;;;;;;19.50;73.00;;;;;;4494331;31;20046;-68
2022/11/02 02:29:31;;;;;;;;;;;19.50;73.00;;;;;;4494369;31;20304;-67
2022/11/02 02:32:01;;;;;;;;;;;19.50;72.90;;;;;;4494237;31;20485;-68
2022/11/02 02:34:33;;;;;;;;;;;19.50;72.90;;;;;;4493917;31;20335;-67
2022/11/02 02:36:59;;;;;;;;;;;19.50;73.80;;;;;;4494244;31;20005;-68
2022/11/02 02:39:24;;;;;;;;;;;19.50;72.90;;;;;;4494212;31;19966;-67
2022/11/02 02:41:53;;;;;;;;;;;19.50;72.90;;;;;;4494325;31;20019;-67
2022/11/02 02:44:20;;;;;;;;;;;19.50;72.90;;;;;;4493845;31;20005;-67
2022/11/02 02:46:57;;;;;;;;;;;19.50;72.80;;;;;;4493999;31;20319;-67
2022/11/02 02:49:44;;;;;;;;;;;19.50;72.70;;;;;;4494205;31;19984;-67
2022/11/02 02:52:11;;;;;;;;;;;19.50;72.90;;;;;;4494330;31;19974;-67
2022/11/02 02:54:39;;;;;;;;;;;19.50;72.80;;;;;;4493811;31;19990;-67
2022/11/02 02:57:24;;;;;;;;;;;19.50;72.80;;;;;;4479426;31;19978;-68
2022/11/02 02:59:50;;;;;;;;;;;19.50;72.80;;;;;;4493914;31;19988;-67
2022/11/02 03:02:19;;;;;;;;;;;19.50;72.80;;;;;;4493678;31;19977;-67
2022/11/02 03:04:45;;;;;;;;;;;19.50;72.90;;;;;;4493487;31;19981;-67
2022/11/02 03:07:13;;;;;;;;;;;19.50;72.90;;;;;;4479385;31;19961;-67
2022/11/02 03:09:40;;;;;;;;;;;19.40;72.80;;;;;;4493862;31;19995;-68
2022/11/02 03:12:06;;;;;;;;;;;19.50;73.70;;;;;;4493625;31;20060;-67
2022/11/02 03:14:50;;;;;;;;;;;19.40;72.70;;;;;;4493465;31;20084;-68
2022/11/02 03:17:17;;;;;;;;;;;19.50;72.70;;;;;;4493498;31;20087;-67
2022/11/02 03:19:43;;;;;;;;;;;19.40;72.70;;;;;;4493321;31;19991;-68
2022/11/02 03:22:21;;;;;;;;;;;19.40;72.70;;;;;;4479091;31;20013;-68
2022/11/02 03:24:56;;;;;;;;;;;19.40;72.70;;;;;;4493389;31;20028;-67
2022/11/02 03:27:36;;;;;;;;;;;19.40;72.70;;;;;;4493492;31;19985;-68
2022/11/02 03:30:03;;;;;;;;;;;19.40;72.70;;;;;;4493028;31;20326;-67
2022/11/02 03:32:28;;;;;;;;;;;19.40;72.70;;;;;;4492812;31;20031;-67
2022/11/02 03:34:56;;;;;;;;;;;19.40;72.70;;;;;;4493170;31;19966;-68
2022/11/02 03:37:24;;;;;;;;;;;19.40;72.70;;;;;;4493247;31;19969;-68
2022/11/02 03:39:51;;;;;;;;;;;19.40;72.70;;;;;;4493439;31;19978;-68
2022/11/02 03:42:22;;;;;;;;;;;19.40;72.70;;;;;;4493184;31;19977;-68
2022/11/02 03:44:49;;;;;;;;;;;19.40;72.70;;;;;;4493391;31;19974;-67
2022/11/02 03:47:16;;;;;;;;;;;19.40;72.70;;;;;;4493259;31;20303;-68
2022/11/02 03:49:43;;;;;;;;;;;19.30;72.70;;;;;;4493070;31;19985;-67
2022/11/02 03:52:11;;;;;;;;;;;19.30;72.70;;;;;;4493321;31;20069;-68
2022/11/02 03:54:50;;;;;;;;;;;19.30;72.70;;;;;;4492739;31;20123;-67
2022/11/02 03:57:18;;;;;;;;;;;19.30;72.70;;;;;;4492787;31;19983;-68
2022/11/02 03:59:43;;;;;;;;;;;19.30;72.70;;;;;;4492990;31;20107;-67
2022/11/02 04:02:10;;;;;;;;;;;19.30;72.70;;;;;;4492777;31;20392;-68
2022/11/02 04:04:46;;;;;;;;;;;19.30;72.70;;;;;;4493236;31;20319;-67
2022/11/02 04:07:12;;;;;;;;;;;19.30;72.60;;;;;;4492637;31;20327;-67
2022/11/02 04:09:37;;;;;;;;;;;19.30;72.60;;;;;;4493141;31;19992;-67
2022/11/02 04:14:48;;;;;;;;;;;19.20;72.70;;;;;;4493280;31;20394;-67
2022/11/02 04:19:58;;;;;;;;;;;19.30;72.70;;;;;;4492786;31;20055;-67
2022/11/02 04:25:17;;;;;;;;;;;19.20;72.70;;;;;;4493102;31;19984;-67
2022/11/02 04:27:51;;;;;;;;;;;19.30;72.70;;;;;;4492527;31;19977;-67
2022/11/02 04:30:18;;;;;;;;;;;19.20;72.70;;;;;;4492509;31;19981;-68
2022/11/02 04:35:30;;;;;;;;;;;19.20;72.60;;;;;;4492508;32;20335;-67
2022/11/02 04:40:41;;;;;;;;;;;19.20;72.70;;;;;;4493624;31;19970;-67
2022/11/02 04:43:06;;;;;;;;;;;19.20;72.70;;;;;;4481618;31;19999;-67
2022/11/02 04:45:32;;;;;;;;;;;19.20;72.60;;;;;;4495753;31;20315;-67
2022/11/02 04:47:59;;;;;;;;;;;19.20;72.60;;;;;;4495866;31;19962;-68
2022/11/02 04:50:25;;;;;;;;;;;19.20;72.60;;;;;;4496023;31;20065;-67
2022/11/02 04:52:55;;;;;;;;;;;19.20;72.60;;;;;;4495704;31;19978;-67
2022/11/02 04:55:21;;;;;;;;;;;19.20;72.60;;;;;;4495293;31;19969;-67
2022/11/02 04:57:46;;;;;;;;;;;19.20;72.60;;;;;;4481177;31;19974;-67
2022/11/02 05:00:12;;;;;;;;;;;19.20;72.60;;;;;;4495291;31;19981;-68
2022/11/02 05:02:38;;;;;;;;;;;19.10;72.50;;;;;;4495512;31;19988;-68
2022/11/02 05:05:05;;;;;;;;;;;19.10;72.60;;;;;;4481602;31;19970;-67
2022/11/02 05:07:30;;;;;;;;;;;19.10;72.50;;;;;;4495195;31;19978;-67
2022/11/02 05:09:56;;;;;;;;;;;19.10;72.50;;;;;;4495438;31;19958;-68
2022/11/02 05:12:22;;;;;;;;;;;19.10;72.60;;;;;;4495699;31;19981;-68
2022/11/02 05:14:48;;;;;;;;;;;19.10;72.60;;;;;;4495020;31;19980;-67
2022/11/02 05:17:15;;;;;;;;;;;19.10;72.60;;;;;;4495042;31;19977;-68
2022/11/02 05:19:40;;;;;;;;;;;19.10;72.60;;;;;;4495048;31;19981;-68
2022/11/02 05:22:06;;;;;;;;;;;19.10;72.50;;;;;;4480865;31;20046;-67
2022/11/02 05:24:32;;;;;;;;;;;19.10;72.50;;;;;;4494961;31;19984;-67
2022/11/02 05:26:59;;;;;;;;;;;19.10;72.50;;;;;;4495177;31;19965;-67
2022/11/02 05:29:25;;;;;;;;;;;19.10;72.50;;;;;;4495162;31;19973;-67
2022/11/02 05:31:51;;;;;;;;;;;19.10;72.50;;;;;;4494798;31;19981;-68
2022/11/02 05:34:16;;;;;;;;;;;19.10;72.40;;;;;;4494887;31;20039;-67
2022/11/02 05:36:42;;;;;;;;;;;19.10;72.50;;;;;;4494859;31;20110;-67
2022/11/02 05:39:08;;;;;;;;;;;19.10;72.40;;;;;;4495022;31;19981;-67
2022/11/02 05:41:33;;;;;;;;;;;19.00;72.50;;;;;;4495101;31;19980;-67
2022/11/02 05:43:59;;;;;;;;;;;19.00;72.40;;;;;;4494672;31;20339;-67
2022/11/02 05:46:25;;;;;;;;;;;19.10;73.30;;;;;;4494911;31;19970;-68
2022/11/02 05:48:50;;;;;;;;;;;19.00;72.50;;;;;;4495095;31;20024;-67
2022/11/02 05:51:16;;;;;;;;;;;19.00;72.50;;;;;;4494330;31;20353;-68
2022/11/02 05:53:42;;;;;;;;;;;19.00;72.50;;;;;;4494895;31;20021;-67
2022/11/02 05:56:08;;;;;;;;;;;19.00;72.50;;;;;;4494740;31;19993;-67
2022/11/02 05:58:34;;;;;;;;;;;19.00;72.40;;;;;;4494811;31;19977;-67
2022/11/02 06:01:01;;;;;;;;;;;19.00;72.40;;;;;;4494811;31;19976;-67
2022/11/02 06:03:27;;;;;;;;;;;19.00;72.40;;;;;;4494347;31;19969;-67
2022/11/02 06:06:00;;;;;;;;;;;19.00;72.50;;;;;;4494727;31;20311;-67
2022/11/02 06:08:26;;;;;;;;;;;19.00;72.50;;;;;;4494673;31;20319;-67
2022/11/02 06:10:52;;;;;;;;;;;19.00;72.50;;;;;;4494554;31;19992;-67
2022/11/02 06:13:18;;;;;;;;;;;19.00;72.50;;;;;;4494756;31;19996;-67
2022/11/02 06:15:44;;;;;;;;;;;19.00;72.50;;;;;;4494715;31;20346;-67
2022/11/02 06:18:09;;;;;;;;;;;19.00;72.50;;;;;;4494718;31;20064;-67
2022/11/02 06:20:35;;;;;;;;;;;19.00;72.50;;;;;;4494177;31;20055;-67
2022/11/02 06:23:01;;;;;;;;;;;19.00;72.50;;;;;;4494649;31;19980;-68
2022/11/02 06:25:27;;;;;;;;;;;18.90;72.40;;;;;;4494563;31;20375;-67
2022/11/02 06:27:55;;;;;;;;;;;19.00;72.50;;;;;;4494415;31;20384;-67
2022/11/02 06:30:21;;;;;;;;;;;19.00;72.60;;;;;;4494601;31;20058;-67
2022/11/02 06:32:47;;;;;;;;;;;18.90;72.50;;;;;;4493703;31;20155;-68
2022/11/02 06:35:13;;;;;;;;;;;19.00;72.50;;;;;;4494232;31;20406;-68
2022/11/02 06:37:38;;;;;;;;;;;19.00;72.50;;;;;;4494426;31;20050;-67
2022/11/02 06:40:04;;;;;;;;;;;19.00;72.60;;;;;;4494192;31;20107;-66
2022/11/02 06:42:30;;;;;;;;;;;18.90;72.50;;;;;;4494438;31;20071;-67
2022/11/02 06:45:01;;;;;;;;;;;18.90;72.50;;;;;;4494284;31;19977;-67
2022/11/02 06:47:34;;;;;;;;;;;18.90;72.50;;;;;;4480549;31;19979;-67
2022/11/02 06:50:00;;;;;;;;;;;18.90;72.60;;;;;;4493970;31;20436;-67
2022/11/02 06:52:26;;;;;;;;;;;18.90;72.50;;;;;;4479744;31;19969;-68
2022/11/02 06:54:52;;;;;;;;;;;18.90;72.50;;;;;;4493822;31;20396;-67
2022/11/02 06:57:18;;;;;;;;;;;18.90;72.50;;;;;;4493607;31;19973;-67
2022/11/02 06:59:43;;;;;;;;;;;18.90;72.50;;;;;;4493804;31;20051;-67
2022/11/02 07:02:09;;;;;;;;;;;18.90;72.60;;;;;;4494015;31;20006;-68
2022/11/02 07:04:35;;;;;;;;;;;18.90;72.50;;;;;;4493202;31;20048;-67
2022/11/02 07:07:00;;;;;;;;;;;18.90;72.60;;;;;;4493985;31;19969;-67
2022/11/02 07:09:26;;;;;;;;;;;18.90;72.60;;;;;;4493887;31;20054;-67
2022/11/02 07:11:52;;;;;;;;;;;18.90;72.60;;;;;;4493644;31;19969;-67
2022/11/02 07:14:18;;;;;;;;;;;18.80;72.50;;;;;;4493589;31;19969;-67
2022/11/02 07:16:44;;;;;;;;;;;18.90;72.60;;;;;;4493535;31;19976;-67
2022/11/02 07:19:10;;;;;;;;;;;18.80;72.50;;;;;;4493539;31;20454;-67
2022/11/02 07:21:35;;;;;;;;;;;18.90;72.70;;;;;;4493426;31;19976;-67
2022/11/02 07:24:01;;;;;;;;;;;18.90;72.40;;;;;;4493161;31;20402;-66
2022/11/02 07:26:27;;;;;;;;;;;18.90;72.20;;;;;;4493199;31;20043;-67
2022/11/02 07:28:53;;;;;;;;;;;18.90;71.70;;;;;;4493663;31;19992;-68
2022/11/02 07:31:18;;;;;;;;;;;18.90;71.70;;;;;;4493275;31;19977;-68
2022/11/02 07:33:44;;;;;;;;;;;18.90;72.00;;;;;;4493264;31;19986;-68
2022/11/02 07:36:10;;;;;;;;;;;18.90;72.00;;;;;;4493449;31;20005;-68
2022/11/02 07:38:36;;;;;;;;;;;18.90;72.00;;;;;;4492924;31;20292;-68
2022/11/02 07:41:01;;;;;;;;;;;18.90;72.10;;;;;;4492957;31;20017;-68
2022/11/02 07:43:27;;;;;;;;;;;18.90;72.00;;;;;;4493162;31;19981;-68
2022/11/02 07:45:53;;;;;;;;;;;18.90;72.00;;;;;;4493137;31;20039;-68
2022/11/02 07:48:19;;;;;;;;;;;18.80;71.90;;;;;;4493404;31;20050;-68
2022/11/02 07:50:44;;;;;;;;;;;18.90;72.00;;;;;;4493202;31;20027;-68
2022/11/02 07:53:10;;;;;;;;;;;18.80;72.00;;;;;;4493297;31;20169;-68
2022/11/02 07:55:36;;;;;;;;;;;18.90;72.10;;;;;;4492649;31;19980;-68
2022/11/02 07:58:03;;;;;;;;;;;18.90;72.10;;;;;;4492949;31;20087;-68
2022/11/02 08:00:30;;;;;;;;;;;18.90;72.20;;;;;;4493221;31;19988;-69
2022/11/02 08:02:57;;;;;;;;;;;18.90;72.20;;;;;;4493102;31;19974;-68
2022/11/02 08:05:23;;;;;;;;;;;18.90;72.20;;;;;;4492957;31;20485;-69
2022/11/02 08:07:55;;;;;;;;;;;18.90;73.10;;;;;;4493127;31;20000;-68
2022/11/02 08:10:21;;;;;;;;;;;18.90;72.30;;;;;;4493191;31;19969;-69
2022/11/02 08:12:47;;;;;;;;;;;18.90;72.20;;;;;;4493056;31;19974;-68
2022/11/02 08:15:13;;;;;;;;;;;18.90;72.20;;;;;;4492701;31;19973;-68
2022/11/02 08:17:39;;;;;;;;;;;18.90;72.30;;;;;;4493044;31;19981;-68
2022/11/02 08:20:05;;;;;;;;;;;18.90;72.30;;;;;;4492728;31;20011;-70
2022/11/02 08:22:31;;;;;;;;;;;18.90;72.10;;;;;;4478587;31;19988;-68
2022/11/02 08:24:56;;;;;;;;;;;19.00;72.20;;;;;;4492416;31;19969;-68
2022/11/02 08:27:22;;;;;;;;;;;19.00;72.10;;;;;;4478226;31;20051;-68
2022/11/02 08:29:47;;;;;;;;;;;19.00;72.30;;;;;;4492641;31;19962;-68
2022/11/02 08:32:13;;;;;;;;;;;19.10;72.30;;;;;;4492235;31;19969;-68
2022/11/02 08:34:39;;;;;;;;;;;19.20;72.10;;;;;;4492253;31;19974;-68
2022/11/02 08:37:06;;;;;;;;;;;19.20;71.70;;;;;;4492487;32;19971;-68
2022/11/02 08:39:31;;;;;;;;;;;19.40;71.50;;;;;;4492747;32;20025;-68
2022/11/02 08:41:57;;;;;;;;;;;19.50;71.20;;;;;;4492689;32;20092;-68
2022/11/02 08:44:22;;;;;;;;;;;19.60;70.80;;;;;;4492424;32;20338;-68
2022/11/02 08:46:48;;;;;;;;;;;19.70;70.40;;;;;;4492678;32;19957;-68
2022/11/02 08:49:17;;;;;;;;;;;19.90;70.10;;;;;;4492628;32;19980;-69
2022/11/02 08:51:44;;;;;;;;;;;20.00;69.80;;;;;;4492405;32;20111;-68
2022/11/02 08:54:10;;;;;;;;;;;20.10;69.40;;;;;;4492376;32;20464;-68
2022/11/02 08:56:35;;;;;;;;;;;20.20;69.10;;;;;;4492396;32;20379;-68
2022/11/02 08:59:01;;;;;;;;;;;20.30;68.90;;;;;;4492170;32;20368;-68
2022/11/02 09:01:27;;;;;;;;;;;20.40;68.70;;;;;;4492271;32;19976;-69
2022/11/02 09:03:52;;;;;;;;;;;20.40;68.50;;;;;;4492393;32;20051;-68
2022/11/02 09:06:18;;;;;;;;;;;20.50;68.30;;;;;;4492091;32;19965;-68
2022/11/02 09:08:44;;;;;;;;;;;20.60;68.20;;;;;;4492094;32;20103;-68
2022/11/02 09:11:09;;;;;;;;;;;20.60;68.00;;;;;;4491993;32;20143;-68
2022/11/02 09:13:36;;;;;;;;;;;20.70;67.90;;;;;;4492302;32;20099;-68
2022/11/02 09:16:03;;;;;;;;;;;20.70;67.80;;;;;;4478157;32;19988;-67
2022/11/02 09:18:29;;;;;;;;;;;20.80;67.70;;;;;;4492360;32;19966;-69
2022/11/02 09:20:55;;;;;;;;;;;20.80;67.70;;;;;;4492632;32;19981;-68
2022/11/02 09:23:21;;;;;;;;;;;20.80;67.70;;;;;;4492333;32;20040;-68
2022/11/02 09:25:47;;;;;;;;;;;20.80;67.50;;;;;;4492335;31;20303;-69
2022/11/02 09:28:14;;;;;;;;;;;20.90;67.30;;;;;;4494741;31;20063;-68
2022/11/02 09:30:40;;;;;;;;;;;20.80;67.20;;;;;;4495217;31;20082;-68
2022/11/02 09:33:06;;;;;;;;;;;20.80;67.00;;;;;;4495077;31;19982;-68
2022/11/02 09:35:33;;;;;;;;;;;20.80;67.10;;;;;;4494644;31;20013;-68
2022/11/02 09:37:59;;;;;;;;;;;20.80;67.20;;;;;;4494762;31;19978;-68
2022/11/02 09:40:29;;;;;;;;;;;20.70;67.30;;;;;;4495016;31;19980;-70
2022/11/02 09:43:02;;;;;;;;;;;20.60;67.30;;;;;;4495066;31;20021;-68
2022/11/02 09:45:30;;;;;;;;;;;20.50;67.30;;;;;;4494665;31;20016;-68
2022/11/02 09:48:09;;;;;;;;;;;20.50;67.50;;;;;;4495173;31;19973;-68
2022/11/02 09:50:45;;;;;;;;;;;20.40;67.60;;;;;;4494839;31;19982;-68
2022/11/02 09:53:14;;;;;;;;;;;20.40;67.70;;;;;;4494909;31;20127;-68
2022/11/02 09:55:48;;;;;;;;;;;20.30;67.70;;;;;;4494738;31;20062;-69
2022/11/02 09:58:17;;;;;;;;;;;20.30;67.70;;;;;;4495104;31;20142;-69
2022/11/02 10:00:46;;;;;;;;;;;20.20;67.90;;;;;;4494713;31;20338;-68
2022/11/02 10:03:24;;;;;;;;;;;20.20;67.70;;;;;;4494376;31;19982;-68
2022/11/02 10:05:59;;;;;;;;;;;20.10;67.80;;;;;;4494731;31;19981;-68
2022/11/02 10:08:34;;;;;;;;;;;20.10;68.00;;;;;;4494680;31;19984;-68
2022/11/02 10:11:05;;;;;;;;;;;20.10;68.20;;;;;;4494961;31;19981;-68
2022/11/02 10:13:37;;;;;;;;;;;20.00;68.20;;;;;;4494885;31;19978;-68
2022/11/02 10:16:03;;;;;;;;;;;19.90;68.10;;;;;;4494515;31;19973;-68
2022/11/02 10:18:30;;;;;;;;;;;19.90;68.20;;;;;;4494197;31;19973;-68
2022/11/02 10:20:57;;;;;;;;;;;19.90;68.50;;;;;;4494125;31;19982;-69
2022/11/02 10:23:25;;;;;;;;;;;19.80;68.40;;;;;;4494384;31;19978;-66
2022/11/02 10:25:51;;;;;;;;;;;19.80;68.40;;;;;;4494461;31;20029;-66
2022/11/02 10:28:19;;;;;;;;;;;19.80;68.50;;;;;;4494596;31;20120;-68
2022/11/02 10:30:44;;;;;;;;;;;19.70;68.30;;;;;;4494342;31;20398;-68
2022/11/02 10:33:15;;;;;;;;;;;19.70;68.30;;;;;;4493948;31;20075;-66
2022/11/02 10:36:01;;;;;;;;;;;19.70;68.30;;;;;;4494145;31;20162;-66
2022/11/02 10:38:27;;;;;;;;;;;19.70;68.20;;;;;;4493512;31;19973;-67
2022/11/02 10:40:53;;;;;;;;;;;19.60;68.10;;;;;;4494179;31;19988;-67
2022/11/02 10:43:34;;;;;;;;;;;19.60;68.20;;;;;;4493789;31;19970;-67
2022/11/02 10:46:03;;;;;;;;;;;19.60;68.20;;;;;;4494168;31;20045;-68
2022/11/02 10:48:43;;;;;;;;;;;19.60;68.20;;;;;;4494000;31;19974;-68
2022/11/02 10:51:13;;;;;;;;;;;19.60;68.10;;;;;;4493650;31;19966;-68
2022/11/02 10:53:40;;;;;;;;;;;19.60;68.20;;;;;;4493732;31;20108;-68
2022/11/02 10:56:19;;;;;;;;;;;19.60;68.30;;;;;;4493382;31;20492;-68
2022/11/02 10:59:03;;;;;;;;;;;19.60;68.30;;;;;;4493379;31;19977;-69
2022/11/02 11:01:30;;;;;;;;;;;19.50;67.90;;;;;;4493273;31;20037;-69
2022/11/02 11:04:00;;;;;;;;;;;19.50;68.10;;;;;;4493479;31;19977;-68
2022/11/02 11:06:27;;;;;;;;;;;19.60;68.10;;;;;;4493709;31;20058;-67
2022/11/02 11:08:57;;;;;;;;;;;19.50;68.00;;;;;;4493815;31;20098;-68
2022/11/02 11:11:25;;;;;;;;;;;19.50;67.90;;;;;;4493710;31;20055;-68
2022/11/02 11:13:56;;;;;;;;;;;19.50;67.50;;;;;;4493650;31;19973;-68
2022/11/02 11:16:34;;;;;;;;;;;19.40;67.40;;;;;;4494006;31;19985;-69
2022/11/02 11:19:00;;;;;;;;;;;19.40;66.90;;;;;;4493637;31;20453;-69
2022/11/02 11:21:54;;;;;;;;;;;19.40;67.00;;;;;;4493795;31;20107;-68
2022/11/02 11:24:20;;;;;;;;;;;19.40;67.00;;;;;;4482699;31;20020;-69
2022/11/02 11:26:58;;;;;;;;;;;19.40;67.10;;;;;;4493412;31;19965;-69
2022/11/02 11:29:24;;;;;;;;;;;19.40;67.70;;;;;;4479192;31;19979;-69
2022/11/02 11:31:49;;;;;;;;;;;19.30;66.40;;;;;;4492983;31;20307;-68
2022/11/02 11:34:23;;;;;;;;;;;19.30;66.40;;;;;;4493091;31;20013;-69
2022/11/02 11:36:49;;;;;;;;;;;19.30;66.30;;;;;;4493123;31;19985;-69
2022/11/02 11:39:28;;;;;;;;;;;19.30;66.30;;;;;;4479007;31;19962;-69
2022/11/02 11:41:54;;;;;;;;;;;19.30;66.40;;;;;;4492946;31;20115;-68
2022/11/02 11:44:20;;;;;;;;;;;19.20;66.30;;;;;;4493132;31;19981;-69
2022/11/02 11:46:48;;;;;;;;;;;19.20;66.10;;;;;;4492860;31;20163;-68
2022/11/02 11:49:24;;;;;;;;;;;19.20;66.30;;;;;;4493120;31;19992;-69
2022/11/02 11:51:51;;;;;;;;;;;19.20;66.40;;;;;;4492816;31;20035;-68
2022/11/02 11:54:20;;;;;;;;;;;19.20;66.20;;;;;;4492731;31;20103;-70
2022/11/02 11:56:46;;;;;;;;;;;19.20;66.20;;;;;;4492916;31;19986;-69
2022/11/02 11:59:43;;;;;;;;;;;19.20;66.20;;;;;;4492949;31;19973;-69
2022/11/02 12:02:38;;;;;;;;;;;19.20;66.00;;;;;;4493383;31;20063;-69
2022/11/02 12:05:12;;;;;;;;;;;19.10;66.10;;;;;;4482703;31;19985;-69
2022/11/02 12:07:56;;;;;;;;;;;19.10;66.20;;;;;;4493107;31;20013;-69
2022/11/02 12:10:30;;;;;;;;;;;19.10;66.30;;;;;;4478419;31;19990;-69
2022/11/02 12:12:59;;;;;;;;;;;19.10;66.20;;;;;;4493159;31;19985;-70
2022/11/02 12:15:25;;;;;;;;;;;19.10;66.20;;;;;;4492678;31;20337;-68
2022/11/02 12:17:54;;;;;;;;;;;19.10;66.20;;;;;;4492699;31;20072;-68
2022/11/02 12:20:29;;;;;;;;;;;19.10;66.10;;;;;;4492708;31;20099;-68
2022/11/02 12:23:13;;;;;;;;;;;19.10;66.00;;;;;;4492979;31;20039;-68
2022/11/02 12:25:45;;;;;;;;;;;19.20;66.00;;;;;;4492906;31;20039;-68
2022/11/02 12:28:23;;;;;;;;;;;19.10;65.70;;;;;;4492605;31;19998;-70
2022/11/02 12:30:57;;;;;;;;;;;19.20;66.50;;;;;;4492347;31;19974;-69
2022/11/02 12:33:25;;;;;;;;;;;19.10;65.10;;;;;;4492301;31;20401;-69
2022/11/02 12:35:51;;;;;;;;;;;19.10;64.80;;;;;;4492590;31;20048;-70
2022/11/02 12:38:32;;;;;;;;;;;19.10;64.50;;;;;;4492291;32;19977;-69
2022/11/02 12:41:02;;;;;;;;;;;19.10;64.50;;;;;;4492357;32;20099;-69
2022/11/02 12:43:38;;;;;;;;;;;19.10;64.40;;;;;;4492578;32;20403;-68
2022/11/02 12:46:10;;;;;;;;;;;19.10;64.40;;;;;;4492557;32;20405;-70
2022/11/02 12:49:14;;;;;;;;;;;19.10;64.50;;;;;;4492408;32;19988;-70
2022/11/02 12:51:58;;;;;;;;;;;19.10;64.30;;;;;;4443384;32;19986;-70
2022/11/02 12:54:35;;;;;;;;;;;19.10;64.00;;;;;;4443680;32;20385;-69
2022/11/02 12:57:01;;;;;;;;;;;19.00;63.90;;;;;;4475910;32;20465;-69
2022/11/02 12:59:27;;;;;;;;;;;19.10;63.30;;;;;;4492187;32;20104;-70
2022/11/02 13:02:00;;;;;;;;;;;19.00;63.10;;;;;;4493061;31;19974;-69
2022/11/02 13:04:36;;;;;;;;;;;19.00;62.90;;;;;;4495550;31;19980;-69
2022/11/02 13:07:12;;;;;;;;;;;19.00;62.60;;;;;;4495494;31;19986;-69
2022/11/02 13:09:38;;;;;;;;;;;19.00;62.80;;;;;;4495734;31;20111;-69
2022/11/02 13:12:06;;;;;;;;;;;19.00;62.50;;;;;;4495398;31;19965;-69
2022/11/02 13:14:39;;;;;;;;;;;19.00;62.70;;;;;;4495358;31;20062;-70
2022/11/02 13:17:24;;;;;;;;;;;19.00;63.00;;;;;;4495402;31;20349;-69
2022/11/02 13:19:52;;;;;;;;;;;19.00;62.70;;;;;;4495619;31;20071;-70
2022/11/02 13:22:19;;;;;;;;;;;19.00;63.10;;;;;;4495462;31;20505;-70
2022/11/02 13:24:51;;;;;;;;;;;19.00;63.00;;;;;;4495473;31;19981;-70
2022/11/02 13:27:29;;;;;;;;;;;19.00;63.00;;;;;;4495455;31;20096;-70
2022/11/02 13:29:58;;;;;;;;;;;19.00;63.00;;;;;;4495576;31;19969;-70
2022/11/02 13:32:33;;;;;;;;;;;19.00;63.30;;;;;;4495489;31;20003;-70
2022/11/02 13:35:02;;;;;;;;;;;19.00;62.90;;;;;;4494782;31;19973;-69
2022/11/02 13:37:37;;;;;;;;;;;19.00;63.20;;;;;;4495283;31;19982;-69
2022/11/02 13:40:11;;;;;;;;;;;19.00;63.30;;;;;;4495166;31;20011;-69
2022/11/02 13:43:13;;;;;;;;;;;19.00;63.30;;;;;;4495245;31;19989;-68
2022/11/02 13:45:38;;;;;;;;;;;19.00;63.30;;;;;;4446011;32;20205;-69
2022/11/02 13:48:22;;;;;;;;;;;19.00;63.60;;;;;;4483999;31;19982;-68
2022/11/02 13:50:50;;;;;;;;;;;19.00;63.90;;;;;;4494397;31;19988;-69
2022/11/02 13:53:25;;;;;;;;;;;19.00;63.50;;;;;;4495055;31;19980;-70
2022/11/02 13:55:53;;;;;;;;;;;19.00;63.50;;;;;;4480603;31;20431;-69
2022/11/02 13:58:39;;;;;;;;;;;19.00;63.50;;;;;;4495131;31;19992;-70
2022/11/02 14:01:06;;;;;;;;;;;19.00;63.70;;;;;;4494890;31;20379;-69
2022/11/02 14:03:44;;;;;;;;;;;19.00;63.20;;;;;;4494672;31;19992;-69
2022/11/02 14:06:11;;;;;;;;;;;18.90;63.20;;;;;;4494563;31;19988;-69
2022/11/02 14:08:41;;;;;;;;;;;18.90;64.30;;;;;;4494623;31;20059;-70
2022/11/02 14:11:09;;;;;;;;;;;18.90;63.40;;;;;;4494563;31;19974;-70
2022/11/02 14:13:51;;;;;;;;;;;18.90;63.50;;;;;;4494128;31;19978;-69
2022/11/02 14:16:35;;;;;;;;;;;18.90;63.50;;;;;;4494486;31;20026;-69
2022/11/02 14:19:16;;;;;;;;;;;18.90;63.40;;;;;;4494432;31;20019;-70
2022/11/02 14:21:48;;;;;;;;;;;18.90;63.50;;;;;;4494397;31;20454;-70
2022/11/02 14:24:35;;;;;;;;;;;18.90;63.50;;;;;;4494097;31;20138;-69
2022/11/02 14:27:03;;;;;;;;;;;18.90;63.40;;;;;;4494408;31;20013;-69
2022/11/02 14:29:35;;;;;;;;;;;18.90;63.30;;;;;;4480256;31;20032;-69
2022/11/02 14:32:03;;;;;;;;;;;18.90;63.20;;;;;;4494381;31;20052;-69
2022/11/02 14:34:35;;;;;;;;;;;18.90;63.30;;;;;;4494075;31;19985;-69
2022/11/02 14:37:11;;;;;;;;;;;18.80;63.70;;;;;;4494430;31;20028;-69
2022/11/02 14:39:59;;;;;;;;;;;18.80;63.50;;;;;;4494689;31;19969;-69
2022/11/02 14:42:25;;;;;;;;;;;18.80;63.60;;;;;;4494361;31;20311;-69